Time;durP1;ratioP1;P1;durP2;ratioP2;P2;SDS_P1;SDS_P2;PMS_P1;PMS_P2;Temp;Humidity;BMP_temperature;BMP_pressure;BME280_temperature;BME280_humidity;BME280_pressure;Samples;Min_cycle;Max_cycle;Signal;HPM_P1;HPM_P2
2021/10/18 00:01:08;;;;;;;28.90;17.70;;;8.00;99.90;;;;;;4992324;28;20955;-68
2021/10/18 00:03:34;;;;;;;30.60;19.10;;;8.00;99.90;;;;;;4992662;28;20211;-68
2021/10/18 00:05:59;;;;;;;31.97;18.43;;;8.00;99.90;;;;;;4992715;28;20168;-69
2021/10/18 00:08:25;;;;;;;30.63;18.47;;;8.00;99.90;;;;;;4992409;28;20180;-68
2021/10/18 00:10:50;;;;;;;27.80;18.63;;;8.00;99.90;;;;;;4992355;28;20182;-68
2021/10/18 00:13:17;;;;;;;28.03;16.97;;;8.00;99.90;;;;;;4992244;28;20207;-67
2021/10/18 00:15:42;;;;;;;24.57;15.90;;;8.00;99.90;;;;;;4992634;28;20665;-69
2021/10/18 00:18:08;;;;;;;25.57;15.53;;;8.00;99.90;;;;;;4992255;28;20430;-68
2021/10/18 00:20:34;;;;;;;23.30;15.50;;;8.00;99.90;;;;;;4992582;28;20527;-68
2021/10/18 00:23:00;;;;;;;29.53;18.57;;;8.00;99.90;;;;;;4992078;28;20206;-68
2021/10/18 00:25:25;;;;;;;25.90;17.13;;;8.10;99.90;;;;;;4992352;28;20439;-69
2021/10/18 00:27:51;;;;;;;24.80;17.40;;;8.10;99.90;;;;;;4991850;28;20183;-68
2021/10/18 00:30:16;;;;;;;26.93;17.47;;;8.20;99.90;;;;;;4992243;28;20266;-68
2021/10/18 00:32:42;;;;;;;26.60;18.07;;;8.20;99.90;;;;;;4992315;28;20207;-69
2021/10/18 00:35:09;;;;;;;24.63;17.27;;;8.10;99.90;;;;;;4992120;28;20254;-67
2021/10/18 00:37:35;;;;;;;26.03;17.50;;;8.10;99.90;;;;;;4992076;28;20825;-69
2021/10/18 00:40:00;;;;;;;27.80;19.77;;;8.20;99.90;;;;;;4992339;28;20439;-68
2021/10/18 00:42:26;;;;;;;28.03;19.00;;;8.20;99.90;;;;;;4992125;28;20474;-68
2021/10/18 00:44:51;;;;;;;28.03;16.90;;;8.20;99.90;;;;;;4992035;28;20199;-69
2021/10/18 00:47:21;;;;;;;28.60;19.40;;;8.30;99.90;;;;;;4992520;28;20262;-68
2021/10/18 00:49:48;;;;;;;28.47;19.40;;;8.30;99.90;;;;;;4996356;28;20535;-68
2021/10/18 00:52:17;;;;;;;32.00;19.17;;;8.30;99.90;;;;;;4996149;28;20463;-68
2021/10/18 00:54:45;;;;;;;26.57;17.30;;;8.30;99.90;;;;;;4996104;28;20541;-68
2021/10/18 00:57:12;;;;;;;28.03;19.37;;;8.40;99.90;;;;;;4995841;28;20782;-68
2021/10/18 00:59:37;;;;;;;25.23;17.40;;;8.40;99.90;;;;;;4995951;28;20437;-68
2021/10/18 01:02:03;;;;;;;27.87;18.80;;;8.20;99.90;;;;;;4995913;28;20811;-68
2021/10/18 01:04:29;;;;;;;25.97;16.97;;;8.20;99.90;;;;;;4995893;28;20223;-68
2021/10/18 01:06:56;;;;;;;27.57;16.97;;;8.20;99.90;;;;;;4995698;28;20645;-68
2021/10/18 01:09:22;;;;;;;30.00;18.33;;;8.30;99.90;;;;;;4990692;28;20181;-67
2021/10/18 01:11:47;;;;;;;32.60;18.70;;;8.40;99.90;;;;;;4983854;28;20520;-69
2021/10/18 01:14:13;;;;;;;29.53;19.10;;;8.40;99.90;;;;;;4995608;28;20208;-67
2021/10/18 01:16:39;;;;;;;28.60;19.07;;;8.50;99.90;;;;;;4995585;28;20187;-68
2021/10/18 01:19:23;;;;;;;30.20;17.87;;;8.50;99.90;;;;;;4995000;28;20258;-69
2021/10/18 01:21:50;;;;;;;31.20;18.37;;;8.50;99.90;;;;;;4995018;28;20183;-68
2021/10/18 01:24:16;;;;;;;27.73;18.77;;;8.50;99.90;;;;;;4995142;28;20485;-68
2021/10/18 01:26:41;;;;;;;26.83;16.93;;;8.50;99.90;;;;;;4995511;28;20924;-68
2021/10/18 01:29:08;;;;;;;27.43;19.13;;;8.50;99.90;;;;;;4994908;28;20446;-68
2021/10/18 01:31:34;;;;;;;29.07;18.10;;;8.50;99.90;;;;;;4995304;28;20199;-68
2021/10/18 01:34:00;;;;;;;32.60;18.93;;;8.60;99.90;;;;;;4994955;28;20542;-68
2021/10/18 01:36:26;;;;;;;32.50;18.80;;;8.60;99.90;;;;;;4995369;28;20441;-67
2021/10/18 01:38:52;;;;;;;30.90;18.67;;;8.60;99.90;;;;;;4994953;28;20593;-68
2021/10/18 01:41:17;;;;;;;30.73;19.10;;;8.60;99.90;;;;;;4994917;28;20931;-67
2021/10/18 01:43:43;;;;;;;29.63;18.70;;;8.60;99.90;;;;;;4995030;28;20199;-68
2021/10/18 01:46:09;;;;;;;32.33;18.87;;;8.60;99.90;;;;;;4995145;28;20271;-68
2021/10/18 01:48:34;;;;;;;35.13;22.20;;;8.50;99.90;;;;;;4994820;28;20179;-68
2021/10/18 01:51:00;;;;;;;33.87;23.00;;;8.40;99.90;;;;;;4994757;28;20326;-68
2021/10/18 01:53:26;;;;;;;33.90;20.50;;;8.30;99.90;;;;;;4994807;28;20211;-68
2021/10/18 01:55:51;;;;;;;29.10;18.33;;;8.40;99.90;;;;;;4995034;28;20649;-68
2021/10/18 01:58:17;;;;;;;36.07;22.03;;;8.40;99.90;;;;;;4994560;28;20194;-67
2021/10/18 02:00:43;;;;;;;33.73;21.00;;;8.40;99.90;;;;;;4994779;28;20215;-68
2021/10/18 02:03:09;;;;;;;34.47;20.67;;;8.40;99.90;;;;;;4994280;28;20207;-68
2021/10/18 02:05:35;;;;;;;36.27;20.00;;;8.40;99.90;;;;;;4994845;28;20462;-68
2021/10/18 02:08:01;;;;;;;32.70;19.63;;;8.40;99.90;;;;;;4994522;28;20431;-68
2021/10/18 02:10:27;;;;;;;28.90;17.83;;;8.50;99.90;;;;;;4994791;28;20449;-68
2021/10/18 02:12:52;;;;;;;30.17;20.70;;;8.50;99.90;;;;;;4994245;28;20489;-68
2021/10/18 02:15:18;;;;;;;32.90;19.83;;;8.40;99.90;;;;;;4994545;28;20215;-67
2021/10/18 02:17:44;;;;;;;32.53;18.80;;;8.40;99.90;;;;;;4994375;28;20168;-68
2021/10/18 02:20:12;;;;;;;34.17;20.20;;;8.40;99.90;;;;;;4994354;28;20179;-67
2021/10/18 02:22:38;;;;;;;35.63;19.90;;;8.30;99.90;;;;;;4994175;28;20426;-68
2021/10/18 02:25:05;;;;;;;31.47;20.37;;;8.30;99.90;;;;;;4994165;28;20450;-68
2021/10/18 02:27:31;;;;;;;33.03;21.70;;;8.40;99.90;;;;;;4994190;28;20435;-68
2021/10/18 02:29:57;;;;;;;35.93;21.37;;;8.40;99.90;;;;;;4994050;28;20438;-68
2021/10/18 02:32:23;;;;;;;34.83;20.93;;;8.40;99.90;;;;;;4993995;28;20533;-68
2021/10/18 02:34:48;;;;;;;32.13;20.93;;;8.30;99.90;;;;;;4994269;28;20979;-69
2021/10/18 02:37:14;;;;;;;35.40;21.10;;;8.30;99.90;;;;;;4993676;28;20955;-68
2021/10/18 02:39:39;;;;;;;35.20;20.67;;;8.40;99.90;;;;;;4994139;28;20163;-69
2021/10/18 02:42:05;;;;;;;37.63;20.80;;;8.40;99.90;;;;;;4993975;28;20234;-69
2021/10/18 02:44:31;;;;;;;32.57;21.77;;;8.40;99.90;;;;;;4994166;28;20207;-67
2021/10/18 02:46:56;;;;;;;32.77;20.80;;;8.50;99.90;;;;;;4993887;28;20314;-67
2021/10/18 02:49:22;;;;;;;29.17;19.07;;;8.50;99.90;;;;;;4993606;28;20179;-68
2021/10/18 02:51:48;;;;;;;34.30;19.77;;;8.50;99.90;;;;;;4994191;28;20203;-67
2021/10/18 02:54:14;;;;;;;37.80;20.70;;;8.50;99.90;;;;;;4993776;28;20196;-67
2021/10/18 02:56:40;;;;;;;32.83;20.63;;;8.50;99.90;;;;;;4993722;28;20496;-68
2021/10/18 02:59:06;;;;;;;39.63;21.20;;;8.50;99.90;;;;;;4993231;28;20434;-67
2021/10/18 03:01:32;;;;;;;35.20;22.13;;;8.50;99.90;;;;;;4993876;28;20804;-68
2021/10/18 03:03:57;;;;;;;38.87;21.87;;;8.50;99.90;;;;;;4993156;28;20218;-68
2021/10/18 03:06:23;;;;;;;35.90;20.50;;;8.50;99.90;;;;;;4989195;28;20184;-67
2021/10/18 03:08:48;;;;;;;32.00;19.90;;;8.60;99.90;;;;;;4989391;28;20642;-67
2021/10/18 03:11:14;;;;;;;32.23;20.10;;;8.50;99.90;;;;;;4992756;28;20176;-68
2021/10/18 03:13:40;;;;;;;30.50;19.00;;;8.50;99.90;;;;;;4993648;28;20199;-68
2021/10/18 03:16:06;;;;;;;34.20;18.70;;;8.50;99.90;;;;;;4993345;28;20489;-68
2021/10/18 03:18:31;;;;;;;32.57;19.97;;;8.40;99.90;;;;;;4993161;28;20233;-67
2021/10/18 03:20:57;;;;;;;33.47;21.17;;;8.40;99.90;;;;;;4993129;28;20187;-68
2021/10/18 03:23:22;;;;;;;34.40;20.57;;;8.50;99.90;;;;;;4993082;28;20673;-68
2021/10/18 03:25:48;;;;;;;32.30;18.70;;;8.50;99.90;;;;;;4993241;28;20183;-67
2021/10/18 03:28:13;;;;;;;31.27;18.73;;;8.50;99.90;;;;;;4992901;28;20187;-69
2021/10/18 03:30:39;;;;;;;32.27;19.07;;;8.50;99.90;;;;;;4993055;28;20233;-67
2021/10/18 03:33:04;;;;;;;32.47;19.60;;;8.40;99.90;;;;;;4992723;28;20713;-68
2021/10/18 03:35:30;;;;;;;32.50;20.10;;;8.50;99.90;;;;;;4992861;28;20645;-67
2021/10/18 03:37:55;;;;;;;35.43;19.53;;;8.50;99.90;;;;;;5001012;28;20695;-67
2021/10/18 03:40:21;;;;;;;32.50;19.00;;;8.40;99.90;;;;;;5011658;28;20178;-67
2021/10/18 03:42:48;;;;;;;32.07;20.13;;;8.40;99.90;;;;;;4996740;28;20287;-68
2021/10/18 03:45:13;;;;;;;31.70;18.07;;;8.40;99.90;;;;;;4992711;28;20514;-67
2021/10/18 03:47:39;;;;;;;31.40;19.83;;;8.30;99.90;;;;;;4992579;28;20529;-68
2021/10/18 03:50:06;;;;;;;32.40;18.30;;;8.40;99.90;;;;;;4992585;28;20430;-69
2021/10/18 03:52:32;;;;;;;27.37;18.40;;;8.20;99.90;;;;;;4992230;28;20294;-68
2021/10/18 03:54:57;;;;;;;35.20;21.73;;;8.10;99.90;;;;;;4992551;28;20541;-69
2021/10/18 03:57:23;;;;;;;35.17;20.57;;;8.10;99.90;;;;;;4992514;28;20249;-67
2021/10/18 03:59:48;;;;;;;34.60;21.60;;;8.20;99.90;;;;;;4992706;28;20575;-68
2021/10/18 04:02:14;;;;;;;34.03;21.30;;;8.30;99.90;;;;;;4992314;28;20279;-69
2021/10/18 04:04:40;;;;;;;29.00;19.47;;;8.30;99.90;;;;;;4992944;28;20203;-68
2021/10/18 04:07:06;;;;;;;32.47;20.57;;;8.50;99.90;;;;;;4992774;28;20186;-68
2021/10/18 04:09:32;;;;;;;27.57;19.10;;;8.50;99.90;;;;;;4992306;28;20434;-68
2021/10/18 04:11:58;;;;;;;33.30;20.30;;;8.60;99.90;;;;;;4992227;28;20210;-69
2021/10/18 04:14:23;;;;;;;35.07;20.93;;;8.60;99.90;;;;;;4992360;28;20820;-68
2021/10/18 04:16:49;;;;;;;33.40;20.33;;;8.70;99.90;;;;;;4992359;28;20319;-68
2021/10/18 04:19:14;;;;;;;32.70;21.57;;;8.60;99.90;;;;;;4992236;28;20629;-69
2021/10/18 04:21:40;;;;;;;38.93;21.63;;;8.50;99.90;;;;;;4991418;28;20567;-68
2021/10/18 04:24:05;;;;;;;33.93;20.27;;;8.50;99.90;;;;;;4992155;28;20229;-68
2021/10/18 04:26:31;;;;;;;40.63;21.57;;;8.40;99.90;;;;;;4991848;28;20309;-68
2021/10/18 04:28:57;;;;;;;41.00;22.53;;;8.30;99.90;;;;;;4992167;28;20179;-69
2021/10/18 04:31:25;;;;;;;35.47;22.57;;;8.30;99.90;;;;;;4992248;28;20720;-68
2021/10/18 04:33:51;;;;;;;37.87;21.37;;;8.20;99.90;;;;;;4991757;28;20206;-69
2021/10/18 04:36:17;;;;;;;38.30;21.40;;;8.10;99.90;;;;;;4992113;28;20438;-68
2021/10/18 04:38:42;;;;;;;40.73;22.47;;;8.10;99.90;;;;;;4992075;28;20180;-68
2021/10/18 04:41:08;;;;;;;35.97;21.67;;;8.20;99.90;;;;;;4992305;28;20184;-69
2021/10/18 04:43:33;;;;;;;36.63;20.43;;;8.10;99.90;;;;;;4991991;28;20199;-69
2021/10/18 04:45:59;;;;;;;39.10;21.57;;;8.10;99.90;;;;;;4991994;28;20191;-68
2021/10/18 04:48:25;;;;;;;32.43;20.13;;;8.00;99.90;;;;;;4991783;28;20185;-69
2021/10/18 04:50:50;;;;;;;33.57;19.90;;;8.00;99.90;;;;;;4991840;28;20206;-68
2021/10/18 04:53:16;;;;;;;35.97;20.20;;;8.00;99.90;;;;;;4991885;28;20199;-68
2021/10/18 04:55:41;;;;;;;36.23;21.80;;;8.10;99.90;;;;;;4992150;28;20175;-68
2021/10/18 04:58:07;;;;;;;36.60;20.30;;;8.20;99.90;;;;;;4991631;28;20262;-68
2021/10/18 05:00:36;;;;;;;39.20;20.63;;;8.30;99.90;;;;;;4991973;28;20262;-68
2021/10/18 05:03:02;;;;;;;35.53;19.47;;;8.30;99.90;;;;;;4991970;28;20326;-69
2021/10/18 05:05:28;;;;;;;32.00;19.90;;;8.40;99.90;;;;;;4992167;28;20442;-68
2021/10/18 05:08:04;;;;;;;34.23;20.53;;;8.50;99.90;;;;;;4991576;28;20493;-68
2021/10/18 05:10:30;;;;;;;32.40;18.77;;;8.50;99.90;;;;;;4980920;28;20740;-69
2021/10/18 05:12:55;;;;;;;28.10;18.37;;;8.50;99.90;;;;;;4991900;28;20462;-69
2021/10/18 05:15:22;;;;;;;31.30;19.47;;;8.50;99.90;;;;;;4991991;28;20431;-68
2021/10/18 05:17:47;;;;;;;33.17;21.20;;;8.40;99.90;;;;;;4991649;28;20186;-68
2021/10/18 05:20:13;;;;;;;34.03;20.63;;;8.40;99.90;;;;;;4991548;28;20438;-68
2021/10/18 05:22:38;;;;;;;32.53;19.57;;;8.50;99.90;;;;;;4991892;28;20676;-68
2021/10/18 05:25:04;;;;;;;34.97;20.60;;;8.50;99.90;;;;;;4991932;28;20180;-68
2021/10/18 05:27:30;;;;;;;27.93;17.03;;;8.60;99.90;;;;;;4991801;28;20528;-69
2021/10/18 05:29:55;;;;;;;30.93;20.40;;;8.60;99.90;;;;;;4991483;28;20203;-68
2021/10/18 05:32:21;;;;;;;30.50;20.27;;;8.60;99.90;;;;;;4991225;28;20574;-69
2021/10/18 05:34:46;;;;;;;37.43;20.83;;;8.60;99.90;;;;;;4993865;28;20196;-69
2021/10/18 05:37:12;;;;;;;34.90;20.17;;;8.70;99.90;;;;;;4995138;28;20636;-68
2021/10/18 05:39:38;;;;;;;31.97;19.80;;;8.70;99.90;;;;;;4995230;28;20179;-69
2021/10/18 05:42:04;;;;;;;25.87;18.37;;;8.80;99.90;;;;;;4994885;28;20191;-68
2021/10/18 05:44:29;;;;;;;30.50;21.00;;;8.80;99.90;;;;;;4994784;28;20195;-68
2021/10/18 05:46:55;;;;;;;30.70;18.17;;;8.70;99.90;;;;;;4994903;28;20187;-69
2021/10/18 05:49:20;;;;;;;30.40;21.53;;;8.50;99.90;;;;;;4994874;28;20556;-68
2021/10/18 05:51:46;;;;;;;27.80;19.23;;;8.50;99.90;;;;;;4994960;28;20204;-68
2021/10/18 05:54:11;;;;;;;27.17;19.03;;;8.60;99.90;;;;;;4993851;28;20207;-68
2021/10/18 05:56:37;;;;;;;31.53;20.40;;;8.60;99.90;;;;;;4994764;28;20188;-69
2021/10/18 05:59:02;;;;;;;29.13;21.53;;;8.70;99.90;;;;;;4994574;28;20214;-68
2021/10/18 06:01:29;;;;;;;28.03;20.30;;;8.70;99.90;;;;;;4994794;28;20295;-68
2021/10/18 06:03:54;;;;;;;32.93;20.13;;;8.70;99.90;;;;;;4994381;28;20215;-68
2021/10/18 06:06:20;;;;;;;30.00;19.80;;;8.70;99.90;;;;;;4994452;28;20808;-68
2021/10/18 06:08:48;;;;;;;28.93;19.00;;;8.60;99.90;;;;;;4994371;28;20532;-69
2021/10/18 06:11:16;;;;;;;27.90;19.57;;;8.60;99.90;;;;;;4994723;28;20453;-68
2021/10/18 06:13:42;;;;;;;26.10;18.80;;;8.70;99.90;;;;;;4994596;28;20824;-68
2021/10/18 06:16:07;;;;;;;30.13;19.20;;;8.70;99.90;;;;;;4994619;28;20437;-68
2021/10/18 06:18:33;;;;;;;31.00;20.00;;;8.60;99.90;;;;;;4994517;28;20828;-68
2021/10/18 06:20:58;;;;;;;28.90;19.80;;;8.60;99.90;;;;;;4993722;28;20172;-68
2021/10/18 06:23:24;;;;;;;29.70;19.13;;;8.60;99.90;;;;;;4994219;28;20563;-68
2021/10/18 06:25:51;;;;;;;26.00;19.17;;;8.60;99.90;;;;;;4993799;28;20218;-69
2021/10/18 06:28:16;;;;;;;30.17;19.97;;;8.60;99.90;;;;;;4993933;28;20767;-69
2021/10/18 06:30:42;;;;;;;32.37;20.43;;;8.70;99.90;;;;;;4994265;28;20522;-69
2021/10/18 06:33:09;;;;;;;30.57;21.47;;;8.80;99.90;;;;;;4993534;28;20212;-69
2021/10/18 06:35:36;;;;;;;36.03;22.20;;;8.90;99.90;;;;;;4994133;28;20481;-69
2021/10/18 06:38:08;;;;;;;30.57;18.47;;;8.90;99.90;;;;;;4986805;28;20464;-68
2021/10/18 06:40:33;;;;;;;34.03;20.87;;;9.00;99.90;;;;;;4990278;28;20871;-71
2021/10/18 06:42:59;;;;;;;29.50;18.50;;;9.10;99.90;;;;;;5006388;28;20497;-71
2021/10/18 06:45:24;;;;;;;30.70;19.50;;;9.20;99.90;;;;;;4992408;28;20264;-71
2021/10/18 06:47:50;;;;;;;31.50;21.67;;;9.30;99.90;;;;;;4991283;28;20207;-71
2021/10/18 06:50:16;;;;;;;29.37;20.37;;;9.30;99.90;;;;;;4990366;28;20226;-72
2021/10/18 06:52:42;;;;;;;28.77;18.37;;;9.40;99.90;;;;;;4992608;28;20396;-71
2021/10/18 06:55:11;;;;;;;27.73;19.10;;;9.20;99.90;;;;;;4986877;28;20433;-71
2021/10/18 06:57:37;;;;;;;30.00;19.23;;;9.10;99.90;;;;;;4993092;28;20434;-71
2021/10/18 07:00:04;;;;;;;23.77;18.60;;;9.10;99.90;;;;;;4988525;28;20500;-72
2021/10/18 07:02:30;;;;;;;30.10;18.40;;;9.00;99.90;;;;;;4992880;28;20466;-71
2021/10/18 07:04:55;;;;;;;27.10;17.23;;;8.90;99.90;;;;;;4990731;28;20501;-72
2021/10/18 07:07:21;;;;;;;26.03;19.83;;;9.10;99.90;;;;;;4991306;28;20637;-72
2021/10/18 07:09:47;;;;;;;24.70;17.63;;;9.10;99.90;;;;;;4974039;28;20277;-72
2021/10/18 07:12:13;;;;;;;23.63;17.40;;;9.10;99.90;;;;;;4966789;28;20728;-72
2021/10/18 07:14:38;;;;;;;26.23;19.50;;;9.10;99.90;;;;;;4992438;28;20558;-72
2021/10/18 07:17:04;;;;;;;27.10;19.13;;;9.20;99.90;;;;;;4992491;28;20606;-72
2021/10/18 07:19:29;;;;;;;25.23;18.67;;;9.30;99.90;;;;;;4992672;28;20198;-72
2021/10/18 07:21:55;;;;;;;30.73;19.10;;;9.30;99.90;;;;;;4992810;28;20614;-72
2021/10/18 07:24:21;;;;;;;25.07;18.33;;;9.10;99.90;;;;;;4992844;28;20211;-72
2021/10/18 07:26:49;;;;;;;27.20;19.70;;;9.00;99.90;;;;;;4992813;28;20665;-72
2021/10/18 07:29:16;;;;;;;27.60;19.43;;;8.90;99.90;;;;;;4992321;28;20438;-72
2021/10/18 07:31:41;;;;;;;25.30;18.70;;;9.00;99.90;;;;;;4992038;28;20462;-72
2021/10/18 07:34:13;;;;;;;28.50;19.37;;;9.20;99.90;;;;;;4991893;28;20458;-72
2021/10/18 07:36:47;;;;;;;27.63;18.40;;;9.20;99.90;;;;;;4992532;28;20168;-72
2021/10/18 07:39:15;;;;;;;23.10;19.00;;;9.20;99.90;;;;;;4990585;28;20438;-71
2021/10/18 07:41:41;;;;;;;24.50;17.97;;;9.20;99.90;;;;;;4990740;28;20449;-72
2021/10/18 07:44:06;;;;;;;27.13;18.60;;;9.30;99.90;;;;;;4992565;28;20508;-72
2021/10/18 07:46:32;;;;;;;23.10;18.53;;;9.40;99.90;;;;;;4992377;28;20179;-72
2021/10/18 07:48:57;;;;;;;25.27;18.40;;;9.50;99.90;;;;;;4991546;28;20184;-72
2021/10/18 07:51:23;;;;;;;26.57;19.47;;;9.50;99.90;;;;;;4992067;28;20183;-72
2021/10/18 07:53:48;;;;;;;26.37;18.70;;;9.50;99.90;;;;;;4991850;28;20199;-72
2021/10/18 07:56:14;;;;;;;25.73;19.17;;;9.40;99.90;;;;;;4992271;28;20195;-72
2021/10/18 07:58:40;;;;;;;24.13;19.30;;;9.40;99.90;;;;;;4991474;28;20205;-72
2021/10/18 08:01:05;;;;;;;25.83;18.00;;;9.30;99.90;;;;;;4991525;28;20183;-72
2021/10/18 08:03:31;;;;;;;29.60;19.23;;;9.30;99.90;;;;;;4992317;28;20222;-71
2021/10/18 08:05:56;;;;;;;24.37;18.03;;;9.30;99.90;;;;;;4992113;28;20180;-72
2021/10/18 08:08:23;;;;;;;26.53;18.10;;;9.30;99.90;;;;;;4987691;28;20231;-72
2021/10/18 08:10:49;;;;;;;25.13;18.07;;;9.40;99.90;;;;;;4992386;28;20207;-72
2021/10/18 08:13:15;;;;;;;30.17;20.27;;;9.30;99.90;;;;;;4992063;28;20501;-72
2021/10/18 08:15:40;;;;;;;32.93;20.20;;;9.20;99.90;;;;;;4992346;28;20183;-72
2021/10/18 08:18:06;;;;;;;29.90;19.83;;;9.10;99.90;;;;;;4991830;28;20214;-72
2021/10/18 08:20:32;;;;;;;26.97;19.90;;;9.00;99.90;;;;;;4991270;28;20202;-72
2021/10/18 08:22:57;;;;;;;24.80;20.10;;;9.10;99.90;;;;;;4991719;28;20210;-72
2021/10/18 08:25:23;;;;;;;26.70;20.70;;;9.20;99.90;;;;;;4992371;28;20188;-72
2021/10/18 08:27:48;;;;;;;24.20;18.60;;;9.30;99.90;;;;;;4991484;28;20187;-72
2021/10/18 08:30:14;;;;;;;25.13;18.57;;;9.40;99.90;;;;;;4991310;28;20198;-72
2021/10/18 08:32:40;;;;;;;30.40;20.80;;;9.50;99.90;;;;;;4990859;28;20203;-72
2021/10/18 08:35:07;;;;;;;26.73;19.30;;;9.40;99.90;;;;;;4991933;28;21006;-72
2021/10/18 08:40:17;;;;;;;30.03;19.73;;;9.40;99.90;;;;;;4991501;28;20478;-72
2021/10/18 08:42:56;;;;;;;26.93;19.30;;;9.50;99.90;;;;;;4991565;28;20949;-72
2021/10/18 08:45:22;;;;;;;26.90;21.10;;;9.50;99.90;;;;;;4991783;28;20443;-72
2021/10/18 08:47:49;;;;;;;26.90;19.37;;;9.60;99.90;;;;;;4990819;28;20848;-72
2021/10/18 08:50:15;;;;;;;30.80;20.43;;;9.60;99.90;;;;;;4988931;28;20986;-72
2021/10/18 08:52:42;;;;;;;27.33;21.27;;;9.60;99.90;;;;;;4990721;28;20470;-72
2021/10/18 08:55:09;;;;;;;22.90;18.50;;;9.50;99.90;;;;;;4991749;28;20180;-72
2021/10/18 08:57:35;;;;;;;27.00;19.30;;;9.50;99.90;;;;;;4991475;28;20442;-72
2021/10/18 09:00:01;;;;;;;24.40;19.03;;;9.50;99.90;;;;;;4990269;28;20866;-71
2021/10/18 09:02:37;;;;;;;24.97;18.63;;;9.60;99.90;;;;;;4990752;28;20601;-72
2021/10/18 09:05:10;;;;;;;23.67;19.30;;;9.80;99.90;;;;;;4989174;28;20187;-72
2021/10/18 09:07:37;;;;;;;25.47;18.57;;;9.90;99.90;;;;;;4991509;28;20441;-72
2021/10/18 09:10:13;;;;;;;24.70;19.13;;;9.90;99.90;;;;;;4994952;28;20952;-72
2021/10/18 09:12:39;;;;;;;23.63;19.10;;;10.00;99.90;;;;;;4995194;28;20454;-72
2021/10/18 09:15:23;;;;;;;26.27;18.43;;;10.00;99.90;;;;;;4995016;28;20469;-72
2021/10/18 09:17:57;;;;;;;23.93;20.47;;;10.00;99.90;;;;;;4994673;28;20461;-72
2021/10/18 09:20:35;;;;;;;21.57;17.20;;;10.00;99.90;;;;;;4989535;28;20457;-71
2021/10/18 09:23:25;;;;;;;22.97;18.57;;;10.20;99.90;;;;;;4990802;28;20458;-72
2021/10/18 09:25:52;;;;;;;23.33;18.70;;;10.10;99.90;;;;;;4995177;28;20468;-72
2021/10/18 09:28:25;;;;;;;23.93;19.80;;;9.90;99.90;;;;;;4994538;28;20442;-72
2021/10/18 09:30:51;;;;;;;25.23;18.80;;;9.80;99.90;;;;;;4994734;28;20522;-72
2021/10/18 09:33:32;;;;;;;24.47;17.57;;;9.90;99.90;;;;;;4994644;28;20462;-72
2021/10/18 09:35:58;;;;;;;23.87;18.07;;;9.90;99.90;;;;;;4983103;28;20796;-72
2021/10/18 09:38:25;;;;;;;28.50;20.10;;;10.10;99.90;;;;;;4990957;28;20447;-71
2021/10/18 09:40:53;;;;;;;27.23;19.10;;;10.00;99.90;;;;;;4994655;28;20489;-72
2021/10/18 09:45:58;;;;;;;26.37;19.47;;;10.10;99.90;;;;;;4994852;28;20948;-72
2021/10/18 10:53:23;;;;;;;19.40;17.20;;;22.70;95.30;;;;;;4989610;28;20549;-70
2021/10/18 10:55:51;;;;;;;18.90;17.00;;;25.30;89.90;;;;;;4993812;28;20426;-70
2021/10/18 10:58:49;;;;;;;18.83;16.90;;;26.80;76.10;;;;;;4992963;28;20442;-70
2021/10/18 11:01:41;;;;;;;18.93;17.27;;;25.50;72.10;;;;;;4991777;28;20446;-69
2021/10/18 11:04:31;;;;;;;21.00;18.90;;;24.80;75.00;;;;;;4991226;28;21111;-70
2021/10/18 11:07:07;;;;;;;20.00;18.03;;;25.10;71.80;;;;;;4993206;28;20438;-70
2021/10/18 11:09:48;;;;;;;18.03;16.33;;;25.40;73.40;;;;;;4992408;28;20430;-69
2021/10/18 11:12:22;;;;;;;19.73;17.63;;;27.90;66.10;;;;;;4992772;28;20466;-72
2021/10/18 11:14:56;;;;;;;23.73;21.57;;;28.90;60.70;;;;;;4992200;28;20463;-71
2021/10/18 11:17:27;;;;;;;19.20;17.63;;;30.00;58.80;;;;;;4992100;28;20434;-68
2021/10/18 11:19:55;;;;;;;17.60;16.10;;;31.20;53.60;;;;;;4992480;28;20430;-65
2021/10/18 11:22:33;;;;;;;18.90;17.17;;;30.40;52.90;;;;;;4992475;28;20441;-65
2021/10/18 11:24:59;;;;;;;19.23;17.07;;;28.40;55.40;;;;;;4989936;28;20462;-65
2021/10/18 11:27:31;;;;;;;18.17;16.70;;;29.40;53.70;;;;;;4992642;28;20489;-66
2021/10/18 11:30:01;;;;;;;19.30;17.73;;;30.70;52.50;;;;;;4992421;28;20438;-66
2021/10/18 11:32:27;;;;;;;18.10;16.50;;;31.80;50.50;;;;;;4991635;28;20553;-65
2021/10/18 11:35:14;;;;;;;16.90;15.60;;;32.80;48.40;;;;;;4992822;28;20888;-66
2021/10/18 11:37:50;;;;;;;18.27;16.67;;;32.70;47.70;;;;;;4992306;28;20453;-66
2021/10/18 11:40:18;;;;;;;16.70;15.20;;;33.30;46.10;;;;;;4992541;28;20452;-66
2021/10/18 11:42:51;;;;;;;18.53;16.57;;;34.30;44.20;;;;;;4992824;28;20852;-65
2021/10/18 11:45:22;;;;;;;17.43;16.03;;;32.00;44.80;;;;;;4992005;28;20480;-65
2021/10/18 11:47:48;;;;;;;15.97;14.67;;;31.60;44.90;;;;;;4992432;28;20485;-67
2021/10/18 11:50:16;;;;;;;16.93;15.33;;;30.10;47.00;;;;;;4992361;28;20446;-68
2021/10/18 11:52:50;;;;;;;15.97;14.50;;;31.50;46.30;;;;;;4992383;28;20447;-67
2021/10/18 11:55:37;;;;;;;19.83;18.23;;;33.50;44.10;;;;;;4991736;28;20534;-67
2021/10/18 11:58:05;;;;;;;15.87;14.53;;;34.20;43.10;;;;;;4991631;28;20582;-66
2021/10/18 12:00:41;;;;;;;16.13;14.63;;;35.10;41.40;;;;;;4991717;28;20434;-66
2021/10/18 12:03:08;;;;;;;16.50;14.90;;;35.20;40.70;;;;;;4991980;28;20453;-65
2021/10/18 12:05:40;;;;;;;15.57;13.97;;;35.50;40.10;;;;;;4992343;28;21003;-65
2021/10/18 12:08:07;;;;;;;16.17;14.67;;;35.00;40.40;;;;;;4991741;28;20534;-65
2021/10/18 12:10:34;;;;;;;16.73;15.23;;;35.30;39.80;;;;;;4992105;28;20439;-65
2021/10/18 12:13:09;;;;;;;15.60;14.30;;;32.00;41.20;;;;;;4991579;28;20466;-65
2021/10/18 12:15:48;;;;;;;16.93;15.50;;;30.40;42.80;;;;;;4991714;28;20434;-65
2021/10/18 12:18:16;;;;;;;14.47;13.30;;;30.70;43.20;;;;;;4991798;28;20435;-67
2021/10/18 12:20:44;;;;;;;16.90;14.27;;;30.30;44.10;;;;;;4991934;28;20945;-64
2021/10/18 12:23:24;;;;;;;16.23;14.73;;;30.40;43.30;;;;;;4991766;28;20458;-64
2021/10/18 12:26:03;;;;;;;14.13;12.87;;;29.60;44.80;;;;;;4991644;28;20442;-65
2021/10/18 12:28:41;;;;;;;16.20;14.80;;;31.70;43.30;;;;;;4986078;28;20439;-65
2021/10/18 12:31:26;;;;;;;14.83;13.53;;;30.20;44.00;;;;;;4991598;28;20477;-67
2021/10/18 12:34:06;;;;;;;13.90;12.73;;;32.50;42.40;;;;;;4991802;28;20525;-69
2021/10/18 12:36:57;;;;;;;15.27;13.87;;;33.80;40.90;;;;;;4991664;28;20580;-67
2021/10/18 12:39:45;;;;;;;15.07;13.60;;;34.10;40.20;;;;;;4991858;28;20477;-65
2021/10/18 12:42:20;;;;;;;15.07;13.77;;;35.00;39.40;;;;;;4991626;28;20996;-65
2021/10/18 12:44:47;;;;;;;14.40;13.20;;;34.70;39.20;;;;;;4994677;28;20466;-65
2021/10/18 12:47:23;;;;;;;13.50;12.40;;;34.30;39.60;;;;;;4995379;28;20437;-66
2021/10/18 12:49:59;;;;;;;13.63;12.33;;;34.60;39.60;;;;;;4995576;28;20496;-65
2021/10/18 12:52:37;;;;;;;14.63;13.47;;;35.60;38.50;;;;;;4989986;28;20458;-65
2021/10/18 12:55:10;;;;;;;12.77;11.67;;;34.50;38.30;;;;;;4995654;28;20426;-65
2021/10/18 12:57:35;;;;;;;13.53;12.33;;;33.80;39.20;;;;;;4995379;28;20438;-65
2021/10/18 13:00:10;;;;;;;14.00;12.80;;;31.60;40.30;;;;;;4995290;28;20496;-67
2021/10/18 13:02:40;;;;;;;13.37;12.00;;;32.00;41.10;;;;;;4994914;28;20225;-64
2021/10/18 13:05:05;;;;;;;13.10;12.10;;;32.90;40.50;;;;;;4995144;28;20784;-64
2021/10/18 13:07:35;;;;;;;12.73;11.73;;;30.80;40.40;;;;;;4994772;28;20504;-65
2021/10/18 13:10:01;;;;;;;13.03;11.80;;;29.90;42.80;;;;;;4995007;28;20187;-64
2021/10/18 13:12:27;;;;;;;12.43;11.33;;;30.20;43.10;;;;;;4995170;28;20960;-64
2021/10/18 13:14:53;;;;;;;13.47;12.30;;;30.60;43.00;;;;;;4995001;28;20548;-64
2021/10/18 13:17:22;;;;;;;13.97;12.80;;;30.70;42.50;;;;;;4994483;28;20935;-64
2021/10/18 13:19:48;;;;;;;14.03;12.73;;;30.30;43.20;;;;;;4995006;28;20446;-67
2021/10/18 13:22:14;;;;;;;12.43;11.43;;;29.90;43.40;;;;;;4995109;28;20438;-66
2021/10/18 13:24:39;;;;;;;14.23;12.70;;;28.60;44.60;;;;;;4995252;28;20262;-67
2021/10/18 13:27:05;;;;;;;16.47;14.87;;;27.40;46.10;;;;;;4989072;28;20952;-67
2021/10/18 13:29:34;;;;;;;15.10;13.60;;;26.60;47.40;;;;;;4991070;28;20611;-68
2021/10/18 13:32:01;;;;;;;16.40;14.70;;;25.90;48.30;;;;;;4991288;28;20565;-68
2021/10/18 13:34:28;;;;;;;16.57;14.83;;;25.40;49.40;;;;;;4990409;28;20464;-68
2021/10/18 13:36:54;;;;;;;15.87;14.47;;;25.00;50.40;;;;;;4991589;28;20447;-66
2021/10/18 13:39:19;;;;;;;18.23;16.10;;;24.60;50.90;;;;;;4991430;28;20439;-66
2021/10/18 13:41:45;;;;;;;14.80;13.30;;;24.00;51.70;;;;;;4990521;28;20238;-67
2021/10/18 13:44:10;;;;;;;14.30;12.93;;;23.50;52.70;;;;;;4991695;28;20677;-66
2021/10/18 13:46:36;;;;;;;18.93;13.53;;;23.10;54.20;;;;;;4991200;28;20553;-66